Time;durP1;ratioP1;P1;durP2;ratioP2;P2;SDS_P1;SDS_P2;PMS_P1;PMS_P2;Temp;Humidity;BMP_temperature;BMP_pressure;BME280_temperature;BME280_humidity;BME280_pressure;Samples;Min_cycle;Max_cycle;Signal;HPM_P1;HPM_P2
2023/04/12 00:01:49;;;;;;;36.08;2.35;;;;;;;20.66;57.04;99112.91;7317229;19;129035;-38
2023/04/12 00:04:15;;;;;;;27.90;2.00;;;;;;;20.66;57.28;99107.66;7312210;19;130663;-41
2023/04/12 00:06:41;;;;;;;15.85;1.60;;;;;;;20.65;56.60;99100.81;7315578;19;128853;-40
2023/04/12 00:09:07;;;;;;;57.35;3.58;;;;;;;20.60;56.80;99092.59;7315932;19;129555;-39
2023/04/12 00:11:34;;;;;;;22.30;1.63;;;;;;;20.59;56.63;99096.19;7314428;19;129681;-40
2023/04/12 00:13:59;;;;;;;38.53;2.78;;;;;;;20.59;56.42;99096.19;7315159;19;129694;-41
2023/04/12 00:16:25;;;;;;;28.70;2.10;;;;;;;20.60;56.97;99087.38;7314716;19;129336;-41
2023/04/12 00:18:50;;;;;;;115.15;6.55;;;;;;;20.55;57.98;99084.38;7312464;19;130540;-40
2023/04/12 00:21:18;;;;;;;34.20;2.17;;;;;;;20.60;57.23;99092.59;7314939;19;129542;-41
2023/04/12 00:23:44;;;;;;;45.40;3.03;;;;;;;20.58;56.69;99094.50;7314859;19;129421;-39
2023/04/12 00:26:10;;;;;;;36.47;2.45;;;;;;;20.52;56.60;99089.88;7313461;19;128885;-41
2023/04/12 00:28:35;;;;;;;43.28;2.60;;;;;;;20.58;56.81;99084.06;7315822;19;129337;-41
2023/04/12 00:31:01;;;;;;;81.75;4.90;;;;;;;20.59;56.59;99083.13;7312158;19;129098;-40
2023/04/12 00:33:26;;;;;;;30.52;2.00;;;;;;;20.58;57.60;99084.91;7315434;19;129249;-41
2023/04/12 00:35:51;;;;;;;33.38;2.15;;;;;;;20.61;56.23;99078.56;7313911;19;129326;-39
2023/04/12 00:38:17;;;;;;;64.30;3.65;;;;;;;20.53;56.16;99068.00;7312175;19;129024;-39
2023/04/12 00:40:43;;;;;;;31.98;2.20;;;;;;;20.66;55.66;99071.09;7313732;19;130345;-39
2023/04/12 00:43:14;;;;;;;27.27;1.83;;;;;;;20.69;56.26;99065.59;7314685;19;129743;-40
2023/04/12 00:45:40;;;;;;;30.05;1.90;;;;;;;20.67;56.23;99057.09;7314676;19;129185;-38
2023/04/12 00:48:06;;;;;;;47.90;3.08;;;;;;;20.64;56.08;99066.03;7312772;19;129050;-39
2023/04/12 00:50:34;;;;;;;34.97;2.15;;;;;;;20.63;56.70;99058.34;7314615;19;129752;-40
2023/04/12 00:53:00;;;;;;;39.90;2.47;;;;;;;20.68;56.49;99056.13;7314021;19;129332;-38
2023/04/12 00:55:25;;;;;;;95.95;5.55;;;;;;;20.69;56.60;99061.19;7312387;19;129463;-40
2023/04/12 00:57:51;;;;;;;50.70;3.10;;;;;;;20.68;56.02;99056.13;7313274;19;129068;-40
2023/04/12 01:00:17;;;;;;;36.72;2.50;;;;;;;20.69;55.95;99060.38;7312522;19;130165;-40
2023/04/12 01:02:45;;;;;;;34.05;2.05;;;;;;;20.72;56.75;99057.47;7314775;19;129526;-40
2023/04/12 01:05:13;;;;;;;30.23;1.88;;;;;;;20.68;55.61;99051.72;7313506;19;129067;-40
2023/04/12 01:08:06;;;;;;;52.30;3.08;;;;;;;20.70;57.93;99048.97;7309627;19;129245;-40
2023/04/12 01:10:35;;;;;;;48.88;2.72;;;;;;;20.67;56.91;99044.88;7308422;19;131339;-41
2023/04/12 01:13:37;;;;;;;39.45;2.30;;;;;;;20.66;57.71;99045.81;7312898;19;129182;-39
2023/04/12 01:16:11;;;;;;;50.30;2.90;;;;;;;20.68;56.53;99038.66;7310583;19;129111;-41
2023/04/12 01:18:40;;;;;;;35.30;2.05;;;;;;;20.62;56.28;99038.44;7314512;19;128877;-39
2023/04/12 01:21:15;;;;;;;26.38;1.77;;;;;;;20.63;56.62;99029.63;7312525;19;129399;-38
2023/04/12 01:23:43;;;;;;;31.27;2.05;;;;;;;20.64;56.59;99028.66;7314615;19;129328;-40
2023/04/12 01:26:14;;;;;;;37.22;2.40;;;;;;;20.63;56.24;99029.63;7312536;19;129016;-38
2023/04/12 01:28:42;;;;;;;45.47;2.80;;;;;;;20.64;56.58;99031.28;7313651;19;129416;-41
2023/04/12 01:31:08;;;;;;;30.85;1.95;;;;;;;20.60;56.67;99024.69;7310795;19;129143;-40
2023/04/12 01:33:36;;;;;;;30.43;1.90;;;;;;;20.63;57.11;99029.63;7310945;19;129333;-38
2023/04/12 01:36:15;;;;;;;32.97;1.92;;;;;;;20.59;56.97;99015.22;7312292;19;128822;-41
2023/04/12 01:38:42;;;;;;;23.17;1.73;;;;;;;20.60;55.49;99014.25;7309894;19;129263;-40
2023/04/12 01:41:08;;;;;;;47.00;2.72;;;;;;;20.59;56.74;99017.84;7311680;19;129969;-39
2023/04/12 01:43:42;;;;;;;30.55;1.92;;;;;;;20.58;57.18;99011.78;7312805;19;129391;-40
2023/04/12 01:46:10;;;;;;;105.82;5.80;;;;;;;20.60;55.67;99014.25;7310674;19;130749;-39
2023/04/12 01:48:38;;;;;;;43.95;2.75;;;;;;;20.57;55.83;99012.75;7310859;19;130491;-39
2023/04/12 01:51:28;;;;;;;48.45;2.78;;;;;;;20.59;57.82;99013.41;7311775;19;130017;-40
2023/04/12 01:53:58;;;;;;;55.38;3.28;;;;;;;20.60;57.13;99001.19;7312296;19;129693;-38
2023/04/12 01:56:29;;;;;;;48.40;2.88;;;;;;;20.59;56.34;98992.53;7311666;19;129139;-37
2023/04/12 01:58:56;;;;;;;95.15;5.32;;;;;;;20.53;56.59;98987.06;7311923;19;129907;-37
2023/04/12 02:01:22;;;;;;;31.77;2.03;;;;;;;20.57;55.95;98978.81;7310515;19;130671;-41
2023/04/12 02:03:49;;;;;;;46.10;2.90;;;;;;;20.53;55.77;98974.00;7312033;19;129670;-42
2023/04/12 02:06:15;;;;;;;;;;;;;;;20.55;57.70;98969.47;7312545;19;129031;-40
2023/04/12 02:08:40;;;;;;;26.33;1.63;;;;;;;20.53;56.99;98974.84;7310932;19;130467;-40
2023/04/12 02:11:09;;;;;;;43.72;2.53;;;;;;;20.48;56.84;98963.19;7311428;19;129105;-40
2023/04/12 02:13:35;;;;;;;57.63;3.08;;;;;;;20.51;56.69;98968.13;7311800;19;129368;-39
2023/04/12 02:16:01;;;;;;;61.05;3.20;;;;;;;20.53;55.91;98964.41;7309099;19;128951;-36
2023/04/12 02:18:27;;;;;;;10.82;1.00;;;;;;;20.51;57.15;98962.91;7311864;19;128808;-41
2023/04/12 02:20:53;;;;;;;32.83;1.98;;;;;;;20.51;56.46;98957.69;7312071;19;129624;-40
2023/04/12 02:23:18;;;;;;;15.05;1.13;;;;;;;20.47;56.05;98943.28;7311694;19;129569;-40
2023/04/12 02:25:45;;;;;;;59.65;3.33;;;;;;;20.49;56.73;98949.97;7311182;19;128841;-40
2023/04/12 02:28:11;;;;;;;;;;;;;;;20.53;57.95;98950.50;7309529;19;128961;-39
2023/04/12 02:30:37;;;;;;;46.13;2.72;;;;;;;20.51;56.98;98947.25;7311141;19;129204;-40
2023/04/12 02:33:04;;;;;;;18.27;1.50;;;;;;;20.49;57.13;98954.41;7311423;19;130332;-40
2023/04/12 02:35:31;;;;;;;67.55;3.72;;;;;;;20.35;57.22;98926.19;7310477;19;129161;-40
2023/04/12 02:37:56;;;;;;;28.17;1.77;;;;;;;20.47;56.27;98951.94;7309647;19;129107;-39
2023/04/12 02:40:22;;;;;;;31.42;1.90;;;;;;;20.38;57.43;98931.09;7311057;19;130418;-39
2023/04/12 02:42:47;;;;;;;55.78;3.63;;;;;;;20.48;56.49;98945.75;7310149;19;129468;-39
2023/04/12 02:45:13;;;;;;;64.50;3.80;;;;;;;20.49;56.08;98938.75;7310617;19;129923;-40
2023/04/12 02:47:39;;;;;;;32.72;2.10;;;;;;;20.49;56.35;98936.91;7310000;19;128940;-41
2023/04/12 02:50:05;;;;;;;32.85;2.08;;;;;;;20.47;57.00;98932.84;7311519;19;129670;-39
2023/04/12 02:52:32;;;;;;;23.87;1.63;;;;;;;20.45;57.44;98937.38;7306019;19;129371;-41
2023/04/12 02:54:58;;;;;;;23.80;1.60;;;;;;;20.43;55.55;98940.13;7308695;19;128958;-40
2023/04/12 02:57:24;;;;;;;24.85;1.58;;;;;;;20.45;57.31;98942.59;7310094;19;129037;-39
2023/04/12 02:59:52;;;;;;;34.55;2.20;;;;;;;20.43;57.01;98934.91;7311203;19;129275;-38
2023/04/12 03:02:19;;;;;;;34.92;1.95;;;;;;;20.47;55.96;98943.28;7310822;19;129137;-40
2023/04/12 03:04:45;;;;;;;43.92;2.45;;;;;;;20.45;56.51;98947.81;7311662;19;129970;-40
2023/04/12 03:07:12;;;;;;;25.48;1.70;;;;;;;20.46;56.26;98939.84;7307768;19;129122;-40
2023/04/12 03:09:37;;;;;;;29.65;1.80;;;;;;;20.46;56.15;98944.25;7308975;19;129276;-40
2023/04/12 03:12:03;;;;;;;39.20;2.25;;;;;;;20.43;56.64;98939.31;7306588;19;130251;-40
2023/04/12 03:14:29;;;;;;;34.93;2.00;;;;;;;20.44;55.96;98933.13;7309062;19;129825;-40
2023/04/12 03:16:55;;;;;;;15.02;1.17;;;;;;;20.41;56.10;98929.00;7309284;19;128761;-40
2023/04/12 03:19:20;;;;;;;33.90;2.03;;;;;;;20.44;56.60;98931.31;7309954;19;130073;-39
2023/04/12 03:21:46;;;;;;;44.15;2.40;;;;;;;20.44;56.76;98925.31;7307923;19;132033;-39
2023/04/12 03:24:11;;;;;;;38.83;2.22;;;;;;;20.45;57.16;98916.50;7310330;19;129285;-39
2023/04/12 03:26:36;;;;;;;25.23;1.58;;;;;;;20.44;56.00;98912.25;7308960;19;128929;-40
2023/04/12 03:29:07;;;;;;;33.13;2.15;;;;;;;20.44;55.79;98910.44;7307106;19;130102;-38
2023/04/12 03:31:33;;;;;;;48.97;2.67;;;;;;;20.41;56.66;98899.50;7314235;19;130393;-40
2023/04/12 03:33:59;;;;;;;37.70;2.13;;;;;;;20.38;56.84;98902.38;7317041;19;129113;-38
2023/04/12 03:36:26;;;;;;;66.07;3.63;;;;;;;20.43;56.43;98907.97;7313617;19;129540;-40
2023/04/12 03:38:52;;;;;;;14.65;0.98;;;;;;;20.13;55.67;98911.72;7316228;19;129594;-40
2023/04/12 03:41:17;;;;;;;47.80;2.60;;;;;;;19.89;56.24;98908.03;7312108;19;129646;-40
2023/04/12 03:43:42;;;;;;;63.58;3.78;;;;;;;19.80;55.63;98878.41;7316001;19;128815;-40
2023/04/12 03:46:08;;;;;;;31.30;1.88;;;;;;;20.04;55.62;98890.91;7316902;19;128967;-40
2023/04/12 03:48:34;;;;;;;34.15;1.95;;;;;;;20.18;54.91;98895.69;7316242;19;130777;-41
2023/04/12 03:50:59;;;;;;;52.05;2.75;;;;;;;20.19;54.90;98894.69;7316200;19;129199;-40
2023/04/12 03:53:29;;;;;;;54.50;3.05;;;;;;;20.33;54.57;98891.56;7316536;19;128796;-40
2023/04/12 03:55:55;;;;;;;26.77;1.60;;;;;;;20.35;54.19;98892.25;7316714;19;128929;-39
2023/04/12 03:58:20;;;;;;;45.10;2.90;;;;;;;20.42;54.29;98875.03;7314621;19;129371;-39
2023/04/12 04:00:46;;;;;;;52.75;2.88;;;;;;;20.46;53.95;98877.19;7315804;19;129247;-40
2023/04/12 04:03:11;;;;;;;33.42;1.85;;;;;;;20.48;54.22;98866.56;7317330;19;128702;-40
2023/04/12 04:05:37;;;;;;;30.13;1.75;;;;;;;20.52;54.09;98865.31;7315948;19;129203;-38
2023/04/12 04:08:05;;;;;;;26.23;1.60;;;;;;;20.54;53.72;98863.38;7314052;19;129683;-40
2023/04/12 04:10:31;;;;;;;33.50;1.85;;;;;;;20.61;53.42;98860.00;7315350;19;129850;-39
2023/04/12 04:12:56;;;;;;;35.38;2.17;;;;;;;20.65;53.63;98855.31;7316307;19;129708;-40
2023/04/12 04:15:24;;;;;;;43.45;2.97;;;;;;;20.69;53.81;98851.44;7315900;19;129205;-40
2023/04/12 04:17:49;;;;;;;56.70;3.00;;;;;;;20.76;53.09;98851.66;7312631;19;129522;-39
2023/04/12 04:20:16;;;;;;;60.50;3.33;;;;;;;20.84;53.39;98849.88;7312823;19;129369;-40
2023/04/12 04:22:43;;;;;;;36.17;2.17;;;;;;;20.84;52.88;98855.09;7313291;19;129410;-39
2023/04/12 04:25:09;;;;;;;49.83;3.05;;;;;;;20.86;53.21;98858.41;7313984;19;129337;-39
2023/04/12 04:27:37;;;;;;;77.07;4.47;;;;;;;20.89;52.94;98855.47;7308147;19;130184;-39
2023/04/12 04:30:04;;;;;;;71.10;3.67;;;;;;;20.95;52.76;98852.25;7314005;19;129457;-37
2023/04/12 04:32:31;;;;;;;37.20;2.08;;;;;;;20.98;52.63;98846.75;7309812;19;129273;-39
2023/04/12 04:34:59;;;;;;;34.78;2.05;;;;;;;20.96;52.98;98848.66;7313284;19;129844;-37
2023/04/12 04:37:26;;;;;;;25.27;1.58;;;;;;;20.94;52.62;98845.38;7312403;19;128968;-37
2023/04/12 04:39:52;;;;;;;35.95;2.30;;;;;;;20.90;52.93;98844.06;7315115;19;129428;-37
2023/04/12 04:42:17;;;;;;;51.90;2.95;;;;;;;20.86;52.93;98845.34;7314918;19;129281;-37
2023/04/12 04:44:43;;;;;;;23.80;1.58;;;;;;;20.77;53.64;98842.81;7315732;19;129257;-37
2023/04/12 04:47:08;;;;;;;35.47;2.10;;;;;;;20.60;53.63;98821.00;7313393;19;129850;-36
2023/04/12 04:49:35;;;;;;;87.30;4.93;;;;;;;20.66;53.24;98846.47;7310195;19;129721;-38
2023/04/12 04:52:01;;;;;;;36.15;2.00;;;;;;;20.59;54.05;98841.06;7311585;19;129023;-39
2023/04/12 04:54:26;;;;;;;37.03;2.08;;;;;;;20.57;54.35;98847.41;7312169;19;130978;-37
2023/04/12 04:56:51;;;;;;;31.75;1.83;;;;;;;20.49;53.75;98840.31;7312687;19;129804;-37
2023/04/12 04:59:18;;;;;;;58.33;3.28;;;;;;;20.46;54.34;98848.44;7313845;19;129418;-39
2023/04/12 05:01:44;;;;;;;31.98;1.90;;;;;;;20.45;54.63;98851.22;7313285;19;129435;-38
2023/04/12 05:04:09;;;;;;;35.33;2.00;;;;;;;20.40;54.29;98840.41;7312465;19;129539;-37
2023/04/12 05:06:35;;;;;;;43.63;2.60;;;;;;;20.39;54.87;98839.59;7312813;19;130814;-37
2023/04/12 05:09:00;;;;;;;55.35;3.00;;;;;;;20.42;54.40;98843.69;7311663;19;132620;-38
2023/04/12 05:11:26;;;;;;;39.58;2.50;;;;;;;20.43;55.07;98840.94;7313073;19;128882;-38
2023/04/12 05:13:52;;;;;;;40.75;2.45;;;;;;;20.42;54.37;98823.63;7311633;19;129548;-38
2023/04/12 05:16:17;;;;;;;25.25;1.65;;;;;;;20.48;54.05;98835.25;7312525;19;129434;-38
2023/04/12 05:18:43;;;;;;;46.72;2.50;;;;;;;20.47;54.08;98823.16;7314339;19;130158;-38
2023/04/12 05:21:08;;;;;;;16.23;1.13;;;;;;;20.57;54.07;98835.19;7311091;19;129752;-40
2023/04/12 05:23:36;;;;;;;43.90;2.58;;;;;;;20.74;53.62;98838.75;7308338;19;129282;-40
2023/04/12 05:26:01;;;;;;;163.80;9.30;;;;;;;20.88;53.62;98830.31;7286182;19;132557;-35
2023/04/12 05:28:26;;;;;;;48.85;2.90;;;;;;;21.06;52.39;98825.06;7294425;19;130304;-38
2023/04/12 05:30:52;;;;;;;44.70;2.50;;;;;;;21.21;52.62;98826.97;7310408;19;129239;-40
2023/04/12 05:33:17;;;;;;;113.70;6.88;;;;;;;21.26;52.91;98816.84;7303256;19;129561;-39
2023/04/12 05:35:42;;;;;;;97.30;5.55;;;;;;;21.37;52.64;98821.81;7293794;19;131289;-39
2023/04/12 05:38:08;;;;;;;164.45;9.00;;;;;;;21.40;52.25;98826.72;7288288;19;130317;-38
2023/04/12 05:40:35;;;;;;;127.70;7.40;;;;;;;21.44;51.86;98814.97;7285726;19;130864;-38
2023/04/12 05:43:02;;;;;;;81.97;4.75;;;;;;;21.43;52.45;98805.50;7297665;19;132134;-36
2023/04/12 05:45:27;;;;;;;138.85;7.53;;;;;;;21.27;52.72;98789.72;7307764;19;130519;-38
2023/04/12 05:47:54;;;;;;;46.17;2.63;;;;;;;21.26;52.75;98797.72;7304841;19;129328;-36
2023/04/12 05:50:19;;;;;;;54.45;3.17;;;;;;;21.13;53.11;98786.88;7308570;19;129359;-40
2023/04/12 05:52:47;;;;;;;43.67;2.83;;;;;;;21.08;53.20;98786.53;7308408;19;128997;-39
2023/04/12 05:55:13;;;;;;;79.90;4.30;;;;;;;21.00;53.31;98781.28;7311013;19;129332;-39
2023/04/12 05:57:38;;;;;;;61.60;3.40;;;;;;;20.93;53.89;98775.81;7308047;19;131029;-39
2023/04/12 06:00:07;;;;;;;25.23;1.85;;;;;;;20.83;54.36;98777.72;7310881;19;130658;-38
2023/04/12 06:02:33;;;;;;;69.20;3.65;;;;;;;20.81;54.46;98773.63;7311864;19;128960;-39
2023/04/12 06:04:59;;;;;;;62.05;3.30;;;;;;;20.67;54.21;98748.91;7310692;19;130076;-40
2023/04/12 06:07:25;;;;;;;25.80;1.65;;;;;;;20.83;54.80;98769.88;7310177;19;131286;-38
2023/04/12 06:09:50;;;;;;;30.63;1.73;;;;;;;20.82;54.78;98762.19;7312356;19;128882;-39
2023/04/12 06:12:15;;;;;;;26.33;1.63;;;;;;;20.89;54.57;98752.78;7311676;19;129201;-39
2023/04/12 06:14:41;;;;;;;32.20;1.90;;;;;;;20.97;53.70;98756.28;7310488;19;130202;-38
2023/04/12 06:17:06;;;;;;;42.13;2.47;;;;;;;21.02;54.08;98746.19;7310891;19;129588;-40
2023/04/12 06:19:32;;;;;;;31.27;1.92;;;;;;;21.15;53.72;98743.13;7310897;19;129782;-39
2023/04/12 06:21:57;;;;;;;29.88;1.98;;;;;;;21.21;53.11;98735.47;7310349;19;129057;-39
2023/04/12 06:24:22;;;;;;;60.35;3.28;;;;;;;21.31;53.04;98733.56;7311236;19;129200;-38
2023/04/12 06:26:48;;;;;;;41.25;2.15;;;;;;;21.39;52.89;98719.66;7310726;19;131389;-40
2023/04/12 06:29:13;;;;;;;24.88;1.73;;;;;;;21.49;52.61;98715.13;7311806;19;129566;-40
2023/04/12 06:31:39;;;;;;;40.78;2.25;;;;;;;21.51;52.60;98708.75;7310990;19;129034;-39
2023/04/12 06:34:04;;;;;;;38.45;2.22;;;;;;;21.53;52.94;98711.22;7309549;19;129262;-39
2023/04/12 06:36:30;;;;;;;36.22;2.03;;;;;;;21.48;53.00;98688.16;7311193;19;129289;-38
2023/04/12 06:38:55;;;;;;;29.80;1.85;;;;;;;21.45;52.57;98693.69;7312466;19;129802;-37
2023/04/12 06:41:20;;;;;;;93.75;5.00;;;;;;;21.38;53.13;98692.72;7311162;19;129377;-38
2023/04/12 06:43:46;;;;;;;52.53;2.83;;;;;;;21.31;53.00;98686.50;7311977;19;129971;-37
2023/04/12 06:46:14;;;;;;;15.55;1.02;;;;;;;21.15;54.08;98689.06;7310879;19;129253;-37
2023/04/12 06:48:39;;;;;;;33.20;1.88;;;;;;;21.12;54.24;98686.75;7309926;19;129240;-36
2023/04/12 06:51:05;;;;;;;49.33;2.67;;;;;;;20.98;54.26;98676.91;7310938;19;129304;-35
2023/04/12 06:53:30;;;;;;;38.80;2.17;;;;;;;20.91;54.76;98682.91;7310541;19;129931;-37
2023/04/12 06:55:56;;;;;;;50.03;3.88;;;;;;;20.71;53.57;98675.28;7310085;19;129645;-37
2023/04/12 06:58:21;;;;;;;56.50;4.35;;;;;;;20.68;54.26;98672.16;7306656;19;128840;-38
2023/04/12 07:00:46;;;;;;;63.17;4.90;;;;;;;20.66;54.44;98666.28;7307679;19;129776;-38
2023/04/12 07:03:12;;;;;;;17.13;2.10;;;;;;;20.49;55.02;98651.53;7306763;19;129739;-41
2023/04/12 07:05:38;;;;;;;43.53;3.70;;;;;;;20.63;55.05;98663.97;7312203;19;129182;-37
2023/04/12 07:08:04;;;;;;;47.67;3.50;;;;;;;20.67;54.90;98667.94;7313153;19;129972;-36
2023/04/12 07:10:29;;;;;;;61.20;4.10;;;;;;;20.74;55.02;98671.56;7318057;19;128824;-37
2023/04/12 07:12:55;;;;;;;78.95;5.47;;;;;;;20.76;54.41;98659.16;7313558;19;129705;-36
2023/04/12 07:15:21;;;;;;;57.45;4.40;;;;;;;20.89;54.65;98664.75;7316742;19;129831;-38
2023/04/12 07:17:46;;;;;;;109.82;7.28;;;;;;;21.00;54.15;98664.50;7314173;19;129360;-40
2023/04/12 07:20:11;;;;;;;57.72;3.72;;;;;;;21.11;53.80;98669.44;7313424;19;129414;-38
2023/04/12 07:22:37;;;;;;;40.92;3.17;;;;;;;21.18;54.18;98654.75;7317227;19;129048;-35
2023/04/12 07:25:05;;;;;;;33.58;2.67;;;;;;;21.26;53.11;98652.16;7315008;19;129298;-36
2023/04/12 07:27:30;;;;;;;48.90;3.92;;;;;;;21.27;52.75;98651.19;7314728;19;129682;-38
2023/04/12 07:29:56;;;;;;;46.67;4.00;;;;;;;21.40;52.52;98648.91;7315503;19;128901;-38
2023/04/12 07:32:22;;;;;;;49.53;4.45;;;;;;;21.53;52.17;98641.44;7313585;19;129239;-37
2023/04/12 07:34:47;;;;;;;48.22;4.05;;;;;;;21.48;53.06;98641.09;7315175;19;129342;-37
2023/04/12 07:37:13;;;;;;;48.42;3.95;;;;;;;21.25;52.46;98634.84;7314786;19;130318;-36
2023/04/12 07:39:39;;;;;;;42.08;3.78;;;;;;;21.07;52.60;98631.56;7316771;19;129702;-37
2023/04/12 07:42:05;;;;;;;33.90;3.72;;;;;;;20.95;52.54;98622.31;7317475;19;130130;-37
2023/04/12 07:44:32;;;;;;;51.17;4.10;;;;;;;20.85;53.54;98624.25;7313204;19;129854;-36
2023/04/12 07:46:58;;;;;;;52.90;3.97;;;;;;;20.76;53.73;98627.81;7315857;19;129335;-37
2023/04/12 07:49:23;;;;;;;54.80;4.13;;;;;;;20.67;53.34;98618.31;7316728;19;128994;-38
2023/04/12 07:51:48;;;;;;;46.20;4.03;;;;;;;20.60;54.25;98612.91;7317108;19;129344;-35
2023/04/12 07:54:14;;;;;;;73.43;5.35;;;;;;;20.50;53.64;98599.16;7314041;19;130352;-38
2023/04/12 07:56:39;;;;;;;69.10;4.40;;;;;;;20.52;54.22;98602.44;7313212;19;129436;-37
2023/04/12 07:59:05;;;;;;;49.97;4.32;;;;;;;20.37;55.05;98582.28;7316001;19;128862;-37
2023/04/12 08:01:31;;;;;;;47.40;4.30;;;;;;;20.42;54.64;98604.34;7314022;19;129262;-36
2023/04/12 08:03:56;;;;;;;73.43;5.47;;;;;;;20.41;54.89;98601.88;7312072;19;130380;-37
2023/04/12 08:06:22;;;;;;;89.32;6.20;;;;;;;20.40;54.65;98592.41;7312980;19;129844;-39
2023/04/12 08:08:47;;;;;;;28.75;3.60;;;;;;;20.46;54.91;98597.00;7315065;19;128916;-37
2023/04/12 08:11:12;;;;;;;48.70;4.85;;;;;;;20.50;55.01;98582.66;7313651;19;129084;-38
2023/04/12 08:13:38;;;;;;;86.72;6.03;;;;;;;20.58;54.39;98574.84;7311597;19;129329;-38
2023/04/12 08:16:04;;;;;;;97.25;6.78;;;;;;;20.76;53.84;98575.56;7311219;19;129591;-36
2023/04/12 08:18:29;;;;;;;109.78;7.60;;;;;;;20.85;53.71;98569.41;7313094;19;130453;-37
2023/04/12 08:20:57;;;;;;;46.83;3.97;;;;;;;20.95;53.72;98569.25;7314163;19;129145;-37
2023/04/12 08:23:22;;;;;;;47.53;4.15;;;;;;;20.94;53.13;98567.63;7311380;19;129520;-37
2023/04/12 08:25:48;;;;;;;94.88;6.00;;;;;;;20.90;53.00;98555.84;7310239;19;129410;-37
2023/04/12 08:28:13;;;;;;;60.03;5.23;;;;;;;20.89;53.79;98557.63;7310322;19;130338;-38
2023/04/12 08:30:38;;;;;;;41.65;4.30;;;;;;;20.80;53.92;98550.78;7315512;19;130432;-37
2023/04/12 08:33:04;;;;;;;62.13;4.73;;;;;;;20.75;53.81;98555.66;7310516;19;131177;-37
2023/04/12 08:35:29;;;;;;;86.30;6.95;;;;;;;20.69;54.17;98553.69;7313055;19;129593;-38
2023/04/12 08:37:55;;;;;;;87.13;6.47;;;;;;;20.53;54.95;98535.34;7308320;19;130247;-37
2023/04/12 08:40:20;;;;;;;45.55;3.72;;;;;;;20.59;54.36;98542.56;7313552;19;129467;-36
2023/04/12 08:42:46;;;;;;;64.25;4.22;;;;;;;20.40;55.36;98517.53;7314651;19;130346;-38
2023/04/12 08:45:12;;;;;;;58.60;4.13;;;;;;;20.46;55.28;98532.53;7313828;19;129522;-39
2023/04/12 08:47:40;;;;;;;21.90;2.53;;;;;;;20.44;55.85;98533.69;7310340;19;130770;-38
2023/04/12 08:50:08;;;;;;;121.15;7.60;;;;;;;20.40;55.90;98535.78;7307105;19;130745;-40
2023/04/12 08:52:34;;;;;;;63.65;4.28;;;;;;;20.40;55.65;98521.91;7311071;19;129624;-38
2023/04/12 08:55:03;;;;;;;45.42;3.55;;;;;;;20.29;56.26;98517.00;7315941;19;129183;-38
2023/04/12 08:57:31;;;;;;;37.20;3.33;;;;;;;20.35;55.82;98529.41;7311088;19;129213;-37
2023/04/12 08:59:59;;;;;;;60.45;3.78;;;;;;;20.32;56.02;98525.31;7313199;19;131177;-36
2023/04/12 09:02:25;;;;;;;37.67;3.25;;;;;;;20.29;56.29;98517.81;7312796;19;130203;-34
2023/04/12 09:04:52;;;;;;;52.00;4.10;;;;;;;20.28;56.23;98523.19;7313987;19;129264;-40
2023/04/12 09:07:18;;;;;;;43.10;3.20;;;;;;;20.31;56.57;98513.22;7308905;19;129628;-36
2023/04/12 09:09:45;;;;;;;14.23;1.80;;;;;;;20.33;56.76;98516.50;7308225;19;130083;-37
2023/04/12 09:12:12;;;;;;;43.20;3.17;;;;;;;20.30;56.13;98500.34;7312759;19;129889;-37
2023/04/12 09:14:39;;;;;;;43.47;3.33;;;;;;;20.48;56.80;98519.34;7313075;19;129435;-37
2023/04/12 09:17:05;;;;;;;46.97;3.90;;;;;;;20.60;56.47;98513.69;7309143;19;130237;-36
2023/04/12 09:19:34;;;;;;;36.20;3.20;;;;;;;20.70;55.42;98513.53;7313132;19;131260;-37
2023/04/12 09:22:00;;;;;;;58.00;4.32;;;;;;;20.80;56.04;98508.97;7310368;19;129141;-36
2023/04/12 09:24:26;;;;;;;51.40;3.57;;;;;;;20.86;55.76;98513.53;7312114;19;129046;-36
2023/04/12 09:27:06;;;;;;;34.57;3.00;;;;;;;20.91;55.60;98500.03;7309495;19;129328;-36
2023/04/12 09:29:32;;;;;;;48.78;3.97;;;;;;;20.95;55.58;98502.16;7309925;19;129541;-38
2023/04/12 09:32:03;;;;;;;13.75;1.98;;;;;;;20.92;55.47;98481.56;7312184;19;129366;-36
2023/04/12 09:34:29;;;;;;;75.60;5.72;;;;;;;20.91;55.33;98489.56;7309363;19;129977;-37
2023/04/12 09:36:55;;;;;;;55.63;4.50;;;;;;;20.85;55.31;98477.97;7308674;19;130799;-38
2023/04/12 09:39:32;;;;;;;32.88;3.10;;;;;;;20.77;56.00;98475.34;7311550;19;130083;-36
2023/04/12 09:42:06;;;;;;;61.97;4.13;;;;;;;20.71;55.84;98470.75;7311212;19;129760;-37
2023/04/12 09:44:33;;;;;;;38.25;3.33;;;;;;;20.69;55.77;98470.13;7309650;19;129900;-37
2023/04/12 09:47:00;;;;;;;71.45;4.47;;;;;;;20.54;56.13;98435.97;7311842;19;129938;-38
2023/04/12 09:49:40;;;;;;;41.25;3.58;;;;;;;20.57;56.63;98447.88;7313476;19;130004;-37
2023/04/12 09:52:12;;;;;;;36.10;3.47;;;;;;;20.55;56.64;98463.72;7313019;19;129281;-37
2023/04/12 09:54:44;;;;;;;63.72;4.88;;;;;;;20.51;57.13;98446.72;7310881;19;129060;-37
2023/04/12 09:57:11;;;;;;;39.72;4.63;;;;;;;20.42;57.07;98442.47;7312100;19;128994;-37
2023/04/12 09:59:39;;;;;;;50.33;4.18;;;;;;;20.42;57.16;98444.28;7312637;19;131341;-38
2023/04/12 10:02:16;;;;;;;52.53;3.95;;;;;;;20.38;57.07;98429.88;7310966;19;129489;-37
2023/04/12 10:04:42;;;;;;;36.22;3.58;;;;;;;20.37;56.91;98429.09;7312715;19;128929;-37
2023/04/12 10:07:07;;;;;;;67.35;5.35;;;;;;;20.32;57.13;98412.25;7309431;19;129959;-37
2023/04/12 10:09:36;;;;;;;34.33;3.47;;;;;;;20.32;57.16;98407.06;7309738;19;129318;-37
2023/04/12 10:12:02;;;;;;;66.07;4.45;;;;;;;20.16;57.29;98383.53;7309889;19;130224;-39
2023/04/12 10:14:28;;;;;;;35.15;3.30;;;;;;;20.24;57.62;98410.47;7309864;19;129563;-37
2023/04/12 10:16:58;;;;;;;50.93;4.30;;;;;;;20.25;57.13;98403.44;7311061;19;129343;-37
2023/04/12 10:19:25;;;;;;;40.13;3.65;;;;;;;20.27;57.45;98391.06;7311809;19;129661;-37
2023/04/12 10:21:51;;;;;;;69.00;4.80;;;;;;;20.29;57.74;98395.16;7309636;19;129337;-36
2023/04/12 10:24:17;;;;;;;32.60;2.90;;;;;;;20.29;57.25;98395.16;7312169;19;129301;-37
2023/04/12 10:26:43;;;;;;;28.40;2.57;;;;;;;20.35;57.47;98383.22;7308393;19;129854;-36
2023/04/12 10:29:26;;;;;;;33.10;3.00;;;;;;;20.49;56.83;98382.59;7311278;19;129310;-38
2023/04/12 10:31:52;;;;;;;96.53;6.28;;;;;;;20.59;56.07;98380.66;7307063;19;131559;-37
2023/04/12 10:34:22;;;;;;;;;;;;;;;20.66;56.25;98386.84;7308490;19;130049;-38
2023/04/12 10:36:58;;;;;;;44.92;3.50;;;;;;;20.81;55.47;98374.78;7308832;19;129089;-37
2023/04/12 10:39:44;;;;;;;30.05;3.17;;;;;;;20.83;55.05;98372.81;7311098;19;130144;-37
2023/04/12 10:42:26;;;;;;;72.72;5.10;;;;;;;20.84;55.52;98369.22;7317064;19;132740;-36
2023/04/12 10:44:56;;;;;;;46.53;3.33;;;;;;;20.76;55.46;98366.59;7316244;19;129286;-36
2023/04/12 10:47:53;;;;;;;37.10;3.10;;;;;;;20.66;55.76;98371.19;7315167;19;129257;-36
2023/04/12 10:50:18;;;;;;;40.45;3.63;;;;;;;20.62;55.87;98344.59;7315186;19;131709;-36
2023/04/12 10:53:17;;;;;;;83.35;5.28;;;;;;;20.56;55.57;98349.66;7309183;19;130167;-38
2023/04/12 10:55:44;;;;;;;32.58;2.95;;;;;;;20.40;56.27;98324.34;7315041;19;129003;-35
2023/04/12 10:58:10;;;;;;;66.70;4.63;;;;;;;20.48;56.14;98339.19;7314570;19;129247;-37
2023/04/12 11:00:55;;;;;;;49.10;3.17;;;;;;;20.35;56.50;98326.63;7317979;19;130817;-36
2023/04/12 11:03:20;;;;;;;49.35;4.20;;;;;;;20.40;56.44;98329.56;7317948;19;129502;-37
2023/04/12 11:06:04;;;;;;;35.05;2.70;;;;;;;20.33;56.72;98333.81;7317283;19;129162;-37
2023/04/12 11:08:31;;;;;;;35.53;2.67;;;;;;;20.31;56.38;98319.28;7318856;19;129308;-36
2023/04/12 11:11:04;;;;;;;39.45;2.92;;;;;;;20.28;56.38;98319.63;7317078;19;130345;-37
2023/04/12 11:13:37;;;;;;;54.17;3.65;;;;;;;20.26;56.69;98316.34;7315463;19;130640;-37
2023/04/12 11:16:05;;;;;;;40.00;2.83;;;;;;;20.22;56.89;98315.03;7314723;19;131906;-37
2023/04/12 11:18:32;;;;;;;83.55;5.22;;;;;;;20.20;57.37;98312.59;7313633;19;128863;-36